Time;durP1;ratioP1;P1;durP2;ratioP2;P2;SDS_P1;SDS_P2;PMS_P1;PMS_P2;Temp;Humidity;BMP_temperature;BMP_pressure;BME280_temperature;BME280_humidity;BME280_pressure;Samples;Min_cycle;Max_cycle;Signal;HPM_P1;HPM_P2
2023/10/17 00:01:32;;;;;;;11.57;5.03;;;9.20;99.90;;;;;;5048225;28;20371;-75
2023/10/17 00:06:37;;;;;;;9.10;4.90;;;9.20;99.90;;;;;;5050080;28;20094;-75
2023/10/17 00:09:07;;;;;;;10.73;5.45;;;9.20;99.90;;;;;;5043948;28;20013;-75
2023/10/17 00:11:44;;;;;;;11.73;5.30;;;9.20;99.90;;;;;;5050409;28;20683;-75
2023/10/17 00:14:11;;;;;;;10.25;5.07;;;9.20;99.90;;;;;;5052088;28;20151;-75
2023/10/17 00:16:37;;;;;;;10.38;5.20;;;9.20;99.90;;;;;;5049824;28;20025;-75
2023/10/17 00:19:05;;;;;;;11.50;4.55;;;9.20;99.90;;;;;;5051639;28;20029;-75
2023/10/17 00:21:33;;;;;;;15.25;5.30;;;9.20;99.90;;;;;;5043646;28;20096;-75
2023/10/17 00:24:01;;;;;;;14.20;5.05;;;9.20;99.90;;;;;;5051415;28;20044;-75
2023/10/17 00:26:26;;;;;;;9.88;4.90;;;9.20;99.90;;;;;;5050977;28;20021;-75
2023/10/17 00:28:53;;;;;;;8.52;5.47;;;9.10;99.90;;;;;;5051104;28;20500;-75
2023/10/17 00:31:21;;;;;;;9.80;4.90;;;9.10;99.90;;;;;;5049911;28;20110;-75
2023/10/17 00:33:55;;;;;;;14.13;5.43;;;9.10;99.90;;;;;;5048001;28;20033;-75
2023/10/17 00:36:21;;;;;;;15.38;5.13;;;9.10;99.90;;;;;;5047752;28;20127;-75
2023/10/17 00:38:47;;;;;;;10.75;5.68;;;9.10;99.90;;;;;;5050996;28;20497;-75
2023/10/17 00:41:27;;;;;;;11.20;5.43;;;9.10;99.90;;;;;;5050990;28;20044;-75
2023/10/17 00:43:53;;;;;;;11.88;5.00;;;9.10;99.90;;;;;;5050029;28;20064;-75
2023/10/17 00:46:19;;;;;;;10.20;5.28;;;9.10;99.90;;;;;;5048284;28;20444;-75
2023/10/17 00:48:47;;;;;;;13.15;5.72;;;9.10;99.90;;;;;;5050548;28;20060;-75
2023/10/17 00:51:18;;;;;;;14.23;5.40;;;9.10;99.90;;;;;;5041410;28;20028;-75
2023/10/17 00:53:45;;;;;;;14.18;5.45;;;9.10;99.90;;;;;;5048714;28;20600;-75
2023/10/17 00:56:11;;;;;;;9.95;5.60;;;9.10;99.90;;;;;;5051063;28;20033;-75
2023/10/17 00:58:37;;;;;;;12.65;5.32;;;9.10;99.90;;;;;;5048309;28;20040;-75
2023/10/17 01:01:20;;;;;;;17.40;5.57;;;9.10;99.90;;;;;;5051565;28;20037;-75
2023/10/17 01:03:48;;;;;;;14.52;6.07;;;9.10;99.90;;;;;;5049784;28;20029;-75
2023/10/17 01:08:46;;;;;;;14.40;5.60;;;9.10;99.90;;;;;;5050805;28;20120;-75
2023/10/17 01:11:21;;;;;;;14.77;5.97;;;9.10;99.90;;;;;;5048400;28;20105;-75
2023/10/17 01:13:52;;;;;;;11.40;5.55;;;9.20;99.90;;;;;;5050624;28;20029;-75
2023/10/17 01:16:18;;;;;;;12.85;5.72;;;9.10;99.90;;;;;;5049933;28;20021;-75
2023/10/17 01:18:44;;;;;;;9.70;5.60;;;9.10;99.90;;;;;;5050341;28;20037;-75
2023/10/17 01:21:18;;;;;;;14.77;5.53;;;9.10;99.90;;;;;;5049651;28;20085;-75
2023/10/17 01:23:47;;;;;;;12.57;5.75;;;9.10;99.90;;;;;;5038577;28;20084;-75
2023/10/17 01:26:20;;;;;;;19.40;6.82;;;9.10;99.90;;;;;;5049196;28;20017;-75
2023/10/17 01:28:48;;;;;;;9.18;5.60;;;9.10;99.90;;;;;;5049720;28;20033;-75
2023/10/17 01:31:14;;;;;;;9.70;5.43;;;9.10;99.90;;;;;;5048847;28;20025;-75
2023/10/17 01:33:43;;;;;;;10.95;5.80;;;9.10;99.90;;;;;;5049899;28;20021;-75
2023/10/17 01:36:10;;;;;;;11.65;5.88;;;9.10;99.90;;;;;;5049112;28;20036;-75
2023/10/17 01:38:36;;;;;;;15.18;5.95;;;9.20;99.90;;;;;;5049451;28;20075;-75
2023/10/17 01:41:02;;;;;;;12.85;5.80;;;9.20;99.90;;;;;;5050563;28;20080;-75
2023/10/17 01:43:40;;;;;;;9.70;5.40;;;9.20;99.90;;;;;;5049582;28;20017;-75
2023/10/17 01:46:08;;;;;;;13.85;5.32;;;9.20;99.90;;;;;;5045565;28;20112;-75
2023/10/17 01:48:35;;;;;;;14.18;5.22;;;9.20;99.90;;;;;;5044471;28;20291;-75
2023/10/17 01:51:07;;;;;;;9.82;5.80;;;9.20;99.90;;;;;;5050186;28;20013;-75
2023/10/17 01:53:34;;;;;;;11.65;5.22;;;9.20;99.90;;;;;;5049809;28;20394;-75
2023/10/17 01:56:13;;;;;;;9.35;5.32;;;9.20;99.90;;;;;;5048696;28;20013;-75
2023/10/17 01:58:38;;;;;;;13.75;5.38;;;9.20;99.90;;;;;;5048862;28;20220;-75
2023/10/17 02:01:12;;;;;;;9.77;5.07;;;9.20;99.90;;;;;;5046228;28;20033;-75
2023/10/17 02:03:39;;;;;;;10.65;5.20;;;9.20;99.90;;;;;;5045130;28;20029;-75
2023/10/17 02:06:13;;;;;;;13.60;5.70;;;9.20;99.90;;;;;;5049361;28;20420;-75
2023/10/17 02:08:39;;;;;;;11.55;5.13;;;9.20;99.90;;;;;;5049064;28;20090;-75
2023/10/17 02:11:08;;;;;;;11.15;5.05;;;9.20;99.90;;;;;;5048585;28;20033;-75
2023/10/17 02:13:35;;;;;;;9.35;5.07;;;9.10;99.90;;;;;;5044778;28;20104;-75
2023/10/17 02:16:00;;;;;;;11.55;4.70;;;9.10;99.90;;;;;;5048609;28;20469;-75
2023/10/17 02:18:26;;;;;;;10.43;4.63;;;9.10;99.90;;;;;;5043576;28;20104;-75
2023/10/17 02:20:51;;;;;;;13.45;4.95;;;9.10;99.90;;;;;;5046257;28;20024;-75
2023/10/17 02:23:25;;;;;;;10.80;5.25;;;9.10;99.90;;;;;;5048049;28;20120;-75
2023/10/17 02:25:52;;;;;;;11.55;4.70;;;9.10;99.90;;;;;;5044063;28;20465;-75
2023/10/17 02:28:17;;;;;;;11.25;5.45;;;9.10;99.90;;;;;;5048926;28;20029;-75
2023/10/17 02:30:46;;;;;;;7.15;4.30;;;9.10;99.90;;;;;;5048859;28;20027;-75
2023/10/17 02:33:17;;;;;;;15.68;5.05;;;9.10;99.90;;;;;;5048980;28;20017;-75
2023/10/17 02:36:04;;;;;;;8.77;4.68;;;9.10;99.90;;;;;;5048439;28;20032;-75
2023/10/17 02:38:30;;;;;;;8.43;4.47;;;9.10;99.90;;;;;;5045441;28;20033;-75
2023/10/17 02:40:56;;;;;;;13.20;5.07;;;9.10;99.90;;;;;;5044224;28;20033;-75
2023/10/17 02:43:21;;;;;;;12.10;4.85;;;9.10;99.90;;;;;;5044775;28;20060;-75
2023/10/17 02:45:47;;;;;;;11.27;5.13;;;9.10;99.90;;;;;;5049935;28;20044;-75
2023/10/17 02:48:25;;;;;;;10.50;4.47;;;9.00;99.90;;;;;;5049715;28;20029;-75
2023/10/17 02:51:00;;;;;;;12.73;4.95;;;9.10;99.90;;;;;;5048952;28;20424;-75
2023/10/17 02:53:29;;;;;;;11.10;4.75;;;9.00;99.90;;;;;;5049210;28;20481;-75
2023/10/17 02:55:56;;;;;;;10.13;4.53;;;9.00;99.90;;;;;;5048729;28;20052;-75
2023/10/17 02:58:22;;;;;;;11.63;4.95;;;9.00;99.90;;;;;;5049591;28;20032;-75
2023/10/17 03:00:47;;;;;;;10.55;5.18;;;9.00;99.90;;;;;;5046780;28;20428;-75
2023/10/17 03:03:19;;;;;;;12.90;4.80;;;9.00;99.90;;;;;;5048883;28;20121;-75
2023/10/17 03:05:50;;;;;;;8.55;4.53;;;9.00;99.90;;;;;;5047478;28;20041;-75
2023/10/17 03:08:17;;;;;;;11.00;4.57;;;9.00;99.90;;;;;;5036218;28;20057;-75
2023/10/17 03:10:43;;;;;;;7.78;4.57;;;9.00;99.90;;;;;;5036890;28;20025;-75
2023/10/17 03:13:53;;;;;;;9.30;4.80;;;9.00;99.90;;;;;;5048934;28;20013;-75
2023/10/17 03:16:14;;;;;;;8.95;4.60;;;9.00;99.90;;;;;;5042605;28;20064;-75
2023/10/17 03:18:40;;;;;;;8.88;4.57;;;9.00;99.90;;;;;;5042532;28;20651;-75
2023/10/17 03:21:08;;;;;;;9.73;4.45;;;9.00;99.90;;;;;;5050115;28;20471;-75
2023/10/17 03:23:34;;;;;;;10.73;4.43;;;9.00;99.90;;;;;;5052900;28;20040;-75
2023/10/17 03:26:00;;;;;;;10.27;4.13;;;9.00;99.90;;;;;;5052654;28;20070;-75
2023/10/17 03:28:33;;;;;;;9.90;4.50;;;9.00;99.90;;;;;;5052006;28;20021;-75
2023/10/17 03:30:59;;;;;;;12.45;4.28;;;9.00;99.90;;;;;;5056646;28;20409;-75
2023/10/17 03:33:27;;;;;;;11.05;3.78;;;8.90;99.90;;;;;;5052321;28;20013;-76
2023/10/17 03:38:30;;;;;;;11.52;4.40;;;8.90;99.90;;;;;;5052075;28;20029;-76
2023/10/17 03:41:15;;;;;;;10.02;4.38;;;9.00;99.90;;;;;;5053045;28;20056;-76
2023/10/17 03:43:49;;;;;;;9.13;3.90;;;8.90;99.90;;;;;;5041934;28;20119;-76
2023/10/17 03:46:15;;;;;;;5.68;2.72;;;8.90;99.90;;;;;;5049999;28;20021;-76
2023/10/17 03:48:49;;;;;;;10.27;4.00;;;8.90;99.90;;;;;;5052232;28;20025;-76
2023/10/17 03:51:21;;;;;;;10.98;4.00;;;8.90;99.90;;;;;;5052659;28;20095;-76
2023/10/17 03:53:48;;;;;;;9.43;4.15;;;8.90;99.90;;;;;;5052276;28;20040;-76
2023/10/17 03:57:02;;;;;;;8.85;4.10;;;8.90;99.90;;;;;;5049283;28;20025;-76
2023/10/17 03:59:18;;;;;;;6.45;3.72;;;8.90;99.90;;;;;;5038439;28;20059;-76
2023/10/17 04:01:49;;;;;;;15.00;4.10;;;8.90;99.90;;;;;;5051988;28;20450;-76
2023/10/17 04:04:30;;;;;;;6.15;3.67;;;8.90;99.90;;;;;;5052512;28;20116;-76
2023/10/17 04:06:57;;;;;;;8.80;4.05;;;8.90;99.90;;;;;;5051548;28;20045;-76
2023/10/17 04:11:49;;;;;;;11.13;3.85;;;8.90;99.90;;;;;;5051484;28;20082;-76
2023/10/17 04:14:17;;;;;;;9.18;3.78;;;8.90;99.90;;;;;;5052124;28;20253;-76
2023/10/17 04:16:44;;;;;;;8.32;3.42;;;8.90;99.90;;;;;;5049533;28;20028;-76
2023/10/17 04:19:30;;;;;;;8.07;3.67;;;8.90;99.90;;;;;;5051775;28;20056;-76
2023/10/17 04:24:34;;;;;;;9.60;3.72;;;8.90;99.90;;;;;;5051425;28;20021;-76
2023/10/17 04:27:19;;;;;;;7.28;3.50;;;8.80;99.90;;;;;;5052044;28;20025;-76
2023/10/17 04:29:50;;;;;;;7.20;4.05;;;8.80;99.90;;;;;;5049782;28;20037;-76
2023/10/17 04:32:19;;;;;;;9.00;3.90;;;8.80;99.90;;;;;;5039693;28;20109;-76
2023/10/17 04:34:46;;;;;;;8.27;4.03;;;8.80;99.90;;;;;;5050320;28;20025;-76
2023/10/17 04:37:16;;;;;;;7.32;4.05;;;8.80;99.90;;;;;;5051454;28;20071;-76
2023/10/17 04:39:50;;;;;;;9.13;4.00;;;8.80;99.90;;;;;;5050601;28;20029;-76
2023/10/17 04:45:19;;;;;;;10.65;3.88;;;8.80;99.90;;;;;;5035746;28;20426;-76
2023/10/17 04:47:46;;;;;;;10.52;3.97;;;8.80;99.90;;;;;;5051076;28;20048;-74
2023/10/17 04:50:12;;;;;;;11.32;4.07;;;8.80;99.90;;;;;;5049511;28;20386;-76
2023/10/17 04:52:40;;;;;;;7.50;4.05;;;8.80;99.90;;;;;;5047601;28;20132;-76
2023/10/17 04:56:02;;;;;;;10.20;3.95;;;8.80;99.90;;;;;;5050534;28;20256;-76
2023/10/17 04:57:59;;;;;;;10.43;4.07;;;8.80;99.90;;;;;;5048021;28;20053;-76
2023/10/17 05:01:10;;;;;;;10.93;4.20;;;8.80;99.90;;;;;;5049738;28;20466;-76
2023/10/17 05:03:32;;;;;;;12.48;4.50;;;8.80;99.90;;;;;;5046028;28;20029;-77
2023/10/17 06:17:48;;;;;;;13.50;5.20;;;8.40;99.90;;;;;;5048174;28;20048;-76
2023/10/17 06:20:16;;;;;;;11.10;5.63;;;8.40;99.90;;;;;;5049304;28;20033;-76
2023/10/17 06:26:46;;;;;;;11.40;4.93;;;8.40;99.90;;;;;;5047586;28;20071;-76
2023/10/17 06:28:25;;;;;;;8.50;4.90;;;8.40;99.90;;;;;;5042006;28;20033;-76
2023/10/17 06:33:35;;;;;;;11.27;5.07;;;8.30;99.90;;;;;;5049621;28;20512;-74
2023/10/17 06:36:13;;;;;;;14.00;5.57;;;8.30;99.90;;;;;;5048461;28;20104;-75
2023/10/17 06:38:47;;;;;;;12.25;5.28;;;8.30;99.90;;;;;;5039574;28;20041;-76
2023/10/17 06:41:27;;;;;;;11.07;4.97;;;8.30;99.90;;;;;;5049280;28;20535;-76
2023/10/17 06:44:05;;;;;;;9.10;5.72;;;8.30;99.90;;;;;;5050164;28;20454;-76
2023/10/17 06:46:30;;;;;;;10.32;5.10;;;8.20;99.90;;;;;;5043727;28;20013;-76
2023/10/17 06:48:58;;;;;;;11.93;5.10;;;8.20;99.90;;;;;;5046133;28;20090;-74
2023/10/17 06:51:30;;;;;;;10.40;5.00;;;8.20;99.90;;;;;;5049024;28;20045;-76
2023/10/17 06:53:57;;;;;;;15.70;5.47;;;8.20;99.90;;;;;;5048502;28;20029;-76
2023/10/17 06:56:25;;;;;;;10.32;4.93;;;8.20;99.90;;;;;;5049612;28;20031;-76
2023/10/17 06:59:03;;;;;;;15.80;5.18;;;8.20;99.90;;;;;;5051255;28;20027;-76
2023/10/17 07:01:31;;;;;;;8.18;4.78;;;8.20;99.90;;;;;;5052472;28;20037;-76
2023/10/17 07:04:01;;;;;;;11.50;5.15;;;8.20;99.90;;;;;;5049483;28;20035;-76
2023/10/17 07:06:28;;;;;;;7.72;4.55;;;8.10;99.90;;;;;;5055126;28;20024;-75
2023/10/17 07:08:54;;;;;;;10.18;4.55;;;8.10;99.90;;;;;;5054826;28;20133;-76
2023/10/17 07:16:34;;;;;;;9.50;4.93;;;8.10;99.90;;;;;;5052903;28;20075;-76
2023/10/17 07:19:46;;;;;;;7.95;4.57;;;8.20;99.90;;;;;;5052131;28;20071;-76
2023/10/17 07:24:25;;;;;;;10.48;5.00;;;8.20;99.90;;;;;;5051097;28;19905;-76
2023/10/17 07:26:55;;;;;;;8.25;4.60;;;8.20;99.90;;;;;;5052463;28;20074;-76
2023/10/17 07:29:22;;;;;;;12.93;5.28;;;8.20;99.90;;;;;;5052225;28;20108;-76
2023/10/17 07:31:53;;;;;;;7.18;4.47;;;8.30;99.90;;;;;;5052744;28;20017;-76
2023/10/17 07:34:23;;;;;;;10.32;4.88;;;8.30;99.90;;;;;;5051653;28;20017;-76
2023/10/17 07:36:55;;;;;;;9.65;4.40;;;8.30;99.90;;;;;;5051628;28;20013;-76
2023/10/17 07:39:24;;;;;;;10.20;4.88;;;8.40;99.90;;;;;;5052540;28;20029;-76
2023/10/17 07:41:53;;;;;;;9.98;4.68;;;8.40;99.90;;;;;;5051931;28;20517;-76
2023/10/17 07:44:21;;;;;;;11.20;4.95;;;8.40;99.90;;;;;;5052991;28;20048;-76
2023/10/17 07:46:49;;;;;;;13.00;5.20;;;8.50;99.90;;;;;;5054200;28;20048;-76
2023/10/17 07:49:18;;;;;;;13.35;5.72;;;8.50;99.90;;;;;;5056440;28;20048;-76
2023/10/17 07:51:44;;;;;;;13.23;6.63;;;8.50;99.90;;;;;;5056552;28;20048;-76
2023/10/17 07:54:16;;;;;;;12.57;6.05;;;8.60;99.90;;;;;;5058174;28;20017;-76
2023/10/17 07:56:50;;;;;;;15.52;6.65;;;8.70;99.90;;;;;;5057952;28;20540;-76
2023/10/17 07:59:30;;;;;;;18.77;8.25;;;8.70;99.90;;;;;;5059358;28;20595;-76
2023/10/17 08:01:59;;;;;;;12.82;7.95;;;8.80;99.90;;;;;;5057685;28;20056;-76
2023/10/17 08:04:30;;;;;;;15.45;8.48;;;8.80;99.90;;;;;;5057533;28;20013;-76
2023/10/17 08:06:56;;;;;;;21.67;9.02;;;8.90;99.90;;;;;;5057394;28;20029;-76
2023/10/17 08:11:53;;;;;;;17.70;9.38;;;9.00;99.90;;;;;;5058518;28;20469;-76
2023/10/17 08:14:22;;;;;;;15.15;8.98;;;9.10;99.90;;;;;;5057740;28;20036;-75
2023/10/17 08:16:49;;;;;;;15.95;8.73;;;9.20;99.90;;;;;;5053948;28;20029;-76
2023/10/17 08:19:22;;;;;;;18.38;9.07;;;9.20;99.90;;;;;;5053581;28;20029;-75
2023/10/17 08:22:10;;;;;;;15.07;9.02;;;9.30;99.90;;;;;;5042260;28;20095;-76
2023/10/17 08:24:44;;;;;;;18.80;8.98;;;9.40;99.90;;;;;;5055460;28;20045;-76
2023/10/17 08:27:13;;;;;;;18.77;9.53;;;9.50;99.90;;;;;;5058924;28;20032;-76
2023/10/17 08:29:49;;;;;;;16.02;8.75;;;9.60;99.90;;;;;;5058617;28;20029;-76
2023/10/17 08:32:38;;;;;;;19.58;9.27;;;9.70;99.90;;;;;;5058452;28;20515;-76
2023/10/17 08:35:37;;;;;;;19.00;10.20;;;9.80;99.90;;;;;;5049843;28;20045;-76
2023/10/17 08:37:59;;;;;;;17.15;9.68;;;10.00;99.90;;;;;;5045078;28;20029;-76
2023/10/17 08:40:31;;;;;;;18.83;10.27;;;10.10;99.90;;;;;;5058355;28;20033;-76
2023/10/17 08:43:01;;;;;;;19.92;9.35;;;10.30;99.90;;;;;;5058133;28;20386;-76
2023/10/17 08:45:28;;;;;;;17.60;9.20;;;10.40;99.90;;;;;;5056994;28;20482;-76
2023/10/17 08:48:00;;;;;;;19.67;9.48;;;10.50;99.90;;;;;;5055960;28;20025;-77
2023/10/17 08:50:27;;;;;;;21.00;9.02;;;10.50;99.90;;;;;;5052067;28;20029;-76
2023/10/17 08:52:56;;;;;;;15.05;9.50;;;10.60;99.90;;;;;;5046085;28;20300;-76
2023/10/17 08:55:22;;;;;;;17.90;8.57;;;10.70;99.90;;;;;;5056454;28;20043;-77
2023/10/17 08:57:50;;;;;;;20.00;9.57;;;10.70;99.90;;;;;;5055746;28;20025;-76
2023/10/17 09:00:38;;;;;;;16.70;9.60;;;10.80;99.90;;;;;;5056282;28;20048;-76
2023/10/17 09:03:09;;;;;;;17.88;9.77;;;10.90;99.90;;;;;;5050326;28;20036;-76
2023/10/17 09:05:58;;;;;;;17.70;10.30;;;11.00;99.90;;;;;;5055828;28;20116;-76
2023/10/17 09:11:14;;;;;;;17.13;10.18;;;11.20;99.90;;;;;;5055373;28;20505;-76
2023/10/17 09:16:15;;;;;;;15.77;9.75;;;11.40;99.90;;;;;;5053119;28;20457;-76
2023/10/17 09:18:48;;;;;;;22.77;10.55;;;11.50;99.90;;;;;;5052476;28;20463;-76
2023/10/17 09:21:14;;;;;;;20.42;10.52;;;11.60;99.90;;;;;;5054300;28;20032;-76
2023/10/17 09:23:41;;;;;;;18.98;10.23;;;11.60;99.90;;;;;;5055534;28;20079;-76
2023/10/17 09:26:07;;;;;;;21.25;9.82;;;11.70;99.90;;;;;;5050646;28;20013;-76
2023/10/17 09:28:37;;;;;;;20.27;10.32;;;11.80;99.90;;;;;;5048967;28;20044;-76
2023/10/17 09:31:08;;;;;;;17.05;10.38;;;11.90;99.90;;;;;;5049972;28;20017;-76
2023/10/17 09:33:35;;;;;;;16.67;10.18;;;12.00;99.90;;;;;;5047103;28;20024;-76
2023/10/17 09:36:05;;;;;;;16.25;9.68;;;12.10;99.90;;;;;;5041774;28;20387;-76
2023/10/17 09:38:32;;;;;;;22.52;10.05;;;12.10;99.90;;;;;;5049412;28;20107;-76
2023/10/17 09:40:59;;;;;;;16.70;10.10;;;12.10;99.90;;;;;;5037752;28;20802;-77
2023/10/17 09:43:25;;;;;;;17.90;9.60;;;12.20;99.90;;;;;;5048786;28;20036;-76
2023/10/17 09:45:55;;;;;;;16.98;10.05;;;12.30;99.90;;;;;;5046148;28;20021;-76
2023/10/17 09:48:32;;;;;;;17.85;10.25;;;12.40;99.90;;;;;;5050215;28;20025;-76
2023/10/17 09:51:01;;;;;;;15.75;9.82;;;12.50;99.90;;;;;;5048963;28;20465;-76
2023/10/17 09:53:30;;;;;;;18.42;9.00;;;12.50;99.90;;;;;;5044401;28;20444;-76
2023/10/17 09:56:06;;;;;;;13.25;8.10;;;12.60;99.90;;;;;;5049709;28;20032;-76
2023/10/17 09:58:34;;;;;;;16.98;8.98;;;12.60;99.90;;;;;;5049482;28;20473;-76
2023/10/17 10:01:05;;;;;;;16.25;8.32;;;12.70;99.90;;;;;;5049956;28;20025;-76
2023/10/17 10:03:35;;;;;;;15.60;7.88;;;12.80;99.90;;;;;;5049176;28;20437;-77
2023/10/17 10:06:25;;;;;;;11.73;6.78;;;12.90;99.90;;;;;;5050220;28;20017;-76
2023/10/17 10:09:13;;;;;;;12.77;6.70;;;12.90;99.90;;;;;;5047457;28;20104;-77
2023/10/17 10:12:01;;;;;;;11.70;6.70;;;13.00;99.90;;;;;;5043353;28;20021;-76
2023/10/17 10:14:27;;;;;;;9.70;6.20;;;13.00;99.90;;;;;;5044712;28;20029;-76
2023/10/17 10:17:05;;;;;;;13.07;6.07;;;13.10;99.90;;;;;;5038922;28;20367;-74
2023/10/17 10:19:46;;;;;;;8.93;5.47;;;13.20;99.90;;;;;;5045944;28;20110;-77
2023/10/17 10:22:16;;;;;;;14.13;5.82;;;13.20;99.90;;;;;;5047097;28;20041;-77
2023/10/17 10:24:45;;;;;;;13.00;6.10;;;13.20;99.90;;;;;;5042720;28;20490;-76
2023/10/17 10:27:10;;;;;;;10.35;5.80;;;13.20;99.90;;;;;;5049154;28;20025;-77
2023/10/17 10:29:37;;;;;;;9.35;5.22;;;13.20;99.90;;;;;;5048688;28;20047;-76
2023/10/17 10:32:07;;;;;;;11.02;4.75;;;13.20;99.90;;;;;;5051407;28;20489;-76
2023/10/17 10:34:36;;;;;;;10.73;4.88;;;13.20;99.90;;;;;;5053233;28;20040;-76
2023/10/17 10:37:08;;;;;;;10.02;4.50;;;13.20;99.90;;;;;;5046392;28;20464;-76
2023/10/17 10:39:35;;;;;;;9.35;4.75;;;13.20;99.90;;;;;;5039019;28;20489;-76
2023/10/17 10:42:05;;;;;;;11.38;4.78;;;13.30;99.90;;;;;;5053445;28;20371;-76
2023/10/17 10:44:42;;;;;;;10.95;4.28;;;13.40;99.90;;;;;;5052836;28;20029;-76
2023/10/17 10:47:08;;;;;;;10.98;4.43;;;13.50;99.90;;;;;;5052744;28;20032;-76
2023/10/17 10:49:34;;;;;;;11.18;4.55;;;13.60;99.90;;;;;;5053393;28;20021;-76
2023/10/17 10:51:59;;;;;;;7.15;4.32;;;13.60;99.90;;;;;;5052778;28;20482;-76
2023/10/17 10:54:45;;;;;;;10.85;4.57;;;13.60;99.90;;;;;;5053263;28;20032;-77
2023/10/17 10:57:12;;;;;;;7.50;4.25;;;13.70;99.90;;;;;;5052323;28;20126;-76
2023/10/17 10:59:48;;;;;;;8.50;4.20;;;13.70;99.90;;;;;;5047529;28;20044;-76
2023/10/17 11:02:14;;;;;;;7.25;4.05;;;13.80;99.90;;;;;;5052091;28;20032;-76
2023/10/17 11:04:40;;;;;;;8.32;4.25;;;13.80;99.90;;;;;;5052597;28;20025;-76
2023/10/17 11:07:22;;;;;;;9.98;4.88;;;13.90;99.90;;;;;;5052827;28;20076;-77
2023/10/17 11:10:06;;;;;;;8.30;4.65;;;14.10;99.90;;;;;;5046229;28;20028;-76
2023/10/17 11:12:32;;;;;;;7.68;3.95;;;14.10;99.90;;;;;;5047912;28;20041;-76
2023/10/17 11:15:19;;;;;;;5.57;3.90;;;14.20;99.90;;;;;;5051701;28;20032;-76
2023/10/17 11:17:45;;;;;;;6.57;3.40;;;14.20;99.90;;;;;;5053394;28;20024;-77
2023/10/17 11:20:15;;;;;;;4.88;3.28;;;14.20;99.90;;;;;;5049175;28;20039;-76
2023/10/17 11:22:45;;;;;;;5.53;3.58;;;14.20;99.90;;;;;;5051957;28;20074;-76
2023/10/17 11:25:21;;;;;;;9.27;3.97;;;14.20;99.90;;;;;;5052411;28;20053;-76
2023/10/17 11:27:56;;;;;;;7.50;3.50;;;14.30;99.90;;;;;;5051342;28;20048;-76
2023/10/17 11:30:34;;;;;;;5.63;3.07;;;14.30;99.90;;;;;;5059536;28;20025;-76
2023/10/17 11:33:04;;;;;;;4.93;3.25;;;14.40;99.90;;;;;;5058205;28;20021;-76
2023/10/17 11:35:31;;;;;;;7.75;3.40;;;14.50;99.90;;;;;;5056363;28;20028;-76
2023/10/17 11:37:57;;;;;;;6.07;3.25;;;14.50;99.90;;;;;;5052457;28;20210;-76
2023/10/17 11:40:30;;;;;;;6.38;3.17;;;14.60;99.90;;;;;;5053964;28;20111;-76
2023/10/17 11:43:13;;;;;;;7.28;3.38;;;14.60;99.90;;;;;;5052344;28;20033;-76
2023/10/17 11:45:41;;;;;;;6.10;3.40;;;14.50;99.90;;;;;;5053106;28;20493;-76
2023/10/17 11:48:36;;;;;;;8.60;4.00;;;14.50;99.90;;;;;;5057350;28;20543;-76
2023/10/17 11:51:18;;;;;;;6.95;3.13;;;14.60;99.90;;;;;;5048363;28;20044;-76
2023/10/17 11:54:09;;;;;;;7.47;3.38;;;14.60;99.90;;;;;;5051927;28;20059;-76
2023/10/17 11:56:41;;;;;;;7.75;3.75;;;14.60;99.90;;;;;;5051371;28;20225;-76
2023/10/17 11:59:08;;;;;;;6.13;3.47;;;14.60;99.90;;;;;;5053914;28;20041;-76
2023/10/17 12:01:33;;;;;;;8.15;3.65;;;14.60;99.90;;;;;;5055714;28;20513;-76
2023/10/17 12:04:06;;;;;;;8.73;3.55;;;14.50;99.90;;;;;;5054936;28;20040;-76
2023/10/17 12:06:35;;;;;;;6.38;3.40;;;14.50;99.90;;;;;;5055570;28;20563;-76
2023/10/17 12:09:46;;;;;;;6.32;2.90;;;14.50;99.90;;;;;;5054531;28;20029;-76
2023/10/17 12:11:54;;;;;;;8.60;3.20;;;14.60;99.90;;;;;;5049156;28;20040;-76
2023/10/17 12:14:20;;;;;;;6.40;3.00;;;14.50;99.90;;;;;;5055856;28;20466;-76
2023/10/17 12:16:54;;;;;;;6.85;3.20;;;14.60;99.90;;;;;;5047342;28;20044;-76
2023/10/17 12:19:27;;;;;;;5.35;3.17;;;14.60;99.90;;;;;;5045841;28;20580;-76
2023/10/17 12:21:54;;;;;;;5.53;3.33;;;14.50;99.90;;;;;;5061223;28;20021;-76
2023/10/17 12:24:24;;;;;;;8.18;3.17;;;14.50;99.90;;;;;;5053809;28;20025;-76
2023/10/17 12:26:50;;;;;;;7.80;3.70;;;14.60;99.90;;;;;;5055233;28;20070;-76
2023/10/17 12:29:17;;;;;;;6.40;3.83;;;14.60;99.90;;;;;;5053639;28;20025;-76
2023/10/17 12:31:43;;;;;;;9.68;3.83;;;14.60;99.90;;;;;;5048892;28;20137;-76
2023/10/17 12:34:09;;;;;;;6.80;3.72;;;14.60;99.90;;;;;;5048750;28;20103;-76
2023/10/17 12:36:36;;;;;;;7.20;3.45;;;14.70;99.90;;;;;;5048896;28;20022;-76
2023/10/17 12:39:02;;;;;;;9.13;3.70;;;14.70;99.90;;;;;;5048307;28;20169;-76
2023/10/17 12:41:31;;;;;;;8.15;3.70;;;14.70;99.90;;;;;;5051637;28;20497;-76
2023/10/17 12:43:57;;;;;;;6.93;3.53;;;14.70;99.90;;;;;;5050768;28;20029;-76
2023/10/17 12:46:23;;;;;;;8.50;3.95;;;14.70;99.90;;;;;;5054767;28;20103;-76
2023/10/17 12:48:48;;;;;;;5.97;3.53;;;14.80;99.90;;;;;;5054284;28;20052;-76
2023/10/17 12:51:14;;;;;;;7.72;2.92;;;14.70;99.90;;;;;;5053964;28;20041;-76
2023/10/17 12:53:40;;;;;;;6.88;3.00;;;14.70;99.90;;;;;;5050096;28;20036;-76
2023/10/17 12:56:10;;;;;;;5.10;2.90;;;14.70;99.90;;;;;;5051926;28;20037;-76
2023/10/17 12:58:36;;;;;;;5.55;2.83;;;14.70;99.90;;;;;;5053403;28;20029;-76
2023/10/17 13:01:04;;;;;;;7.38;3.20;;;14.60;99.90;;;;;;5053623;28;20137;-76
2023/10/17 13:03:33;;;;;;;4.65;2.90;;;14.60;99.90;;;;;;5051399;28;20025;-76
2023/10/17 13:06:02;;;;;;;6.25;3.00;;;14.50;99.90;;;;;;5053142;28;20041;-76
2023/10/17 13:08:28;;;;;;;4.70;2.75;;;14.50;99.90;;;;;;5054155;28;20029;-76
2023/10/17 13:10:55;;;;;;;4.72;2.65;;;14.50;99.90;;;;;;5052198;28;20844;-76
2023/10/17 13:13:21;;;;;;;6.25;2.83;;;14.60;99.90;;;;;;5050516;28;20024;-76
2023/10/17 13:15:48;;;;;;;6.15;2.80;;;14.60;99.90;;;;;;5051166;28;20028;-75
2023/10/17 13:18:14;;;;;;;7.13;3.05;;;14.60;99.90;;;;;;5053012;28;20059;-76
2023/10/17 13:20:48;;;;;;;4.22;2.85;;;14.70;99.90;;;;;;5053408;28;20044;-76
2023/10/17 13:23:16;;;;;;;5.70;3.50;;;14.70;99.90;;;;;;5051874;28;20036;-76
2023/10/17 13:25:42;;;;;;;5.82;3.70;;;14.70;99.90;;;;;;5049504;28;20017;-76
2023/10/17 13:28:09;;;;;;;5.88;2.72;;;14.70;99.90;;;;;;5053932;28;20025;-76
2023/10/17 13:30:35;;;;;;;5.53;3.20;;;14.70;99.90;;;;;;5054636;28;20417;-76
2023/10/17 13:33:00;;;;;;;5.15;3.10;;;14.70;99.90;;;;;;5051550;28;20040;-76
2023/10/17 13:35:28;;;;;;;5.00;3.03;;;14.70;99.90;;;;;;5045436;28;20029;-76
2023/10/17 13:37:55;;;;;;;5.45;3.28;;;14.70;99.90;;;;;;5051459;28;20134;-76
2023/10/17 13:40:24;;;;;;;5.72;3.28;;;14.70;99.90;;;;;;5054979;28;20548;-76
2023/10/17 13:42:52;;;;;;;6.43;3.40;;;14.70;99.90;;;;;;5053492;28;20025;-76
2023/10/17 13:45:21;;;;;;;5.60;3.80;;;14.70;99.90;;;;;;5053404;28;20036;-76
2023/10/17 13:47:48;;;;;;;6.45;3.55;;;14.60;99.90;;;;;;5054530;28;20491;-76
2023/10/17 13:50:15;;;;;;;6.22;3.72;;;14.70;99.90;;;;;;5070112;28;20147;-76
2023/10/17 13:52:41;;;;;;;6.10;3.75;;;14.70;99.90;;;;;;5052341;28;20485;-76
2023/10/17 13:55:09;;;;;;;6.25;4.10;;;14.70;99.90;;;;;;5051639;28;20035;-76
2023/10/17 13:57:36;;;;;;;6.68;3.70;;;14.70;99.90;;;;;;5053851;28;20106;-76
2023/10/17 14:00:05;;;;;;;6.32;3.65;;;14.80;99.90;;;;;;5054348;28;20053;-75
2023/10/17 14:02:31;;;;;;;6.13;3.83;;;14.70;99.90;;;;;;5054965;28;20029;-76
2023/10/17 14:04:57;;;;;;;6.85;3.80;;;14.80;99.90;;;;;;5053997;28;20025;-76
2023/10/17 14:07:22;;;;;;;9.00;3.90;;;14.80;99.90;;;;;;5054388;28;20039;-76
2023/10/17 14:09:50;;;;;;;4.32;3.38;;;14.80;99.90;;;;;;5053841;28;20016;-76
2023/10/17 14:12:17;;;;;;;6.20;3.63;;;14.80;99.90;;;;;;5052473;28;20122;-76
2023/10/17 14:14:43;;;;;;;6.00;3.30;;;14.80;99.90;;;;;;5055119;28;20052;-76
2023/10/17 14:17:08;;;;;;;4.32;3.35;;;14.80;99.90;;;;;;5054103;28;20021;-76
2023/10/17 14:27:25;;;;;;;42.95;29.70;;;14.80;99.90;;;;;;5053716;28;20537;-76
2023/10/17 14:29:52;;;;;;;10.50;5.50;;;14.80;99.90;;;;;;5053465;28;20504;-76
2023/10/17 14:32:20;;;;;;;6.47;3.85;;;14.70;99.90;;;;;;5049726;28;20029;-76
2023/10/17 14:34:47;;;;;;;5.63;3.72;;;14.70;99.90;;;;;;5054249;28;20040;-76
2023/10/17 14:37:14;;;;;;;8.70;4.30;;;14.60;99.90;;;;;;5049876;28;20021;-76
2023/10/17 14:39:40;;;;;;;7.90;4.00;;;14.60;99.90;;;;;;5054116;28;20021;-76
2023/10/17 14:42:06;;;;;;;7.15;3.80;;;14.50;99.90;;;;;;5054326;28;20036;-76
2023/10/17 14:44:32;;;;;;;7.20;4.15;;;14.50;99.90;;;;;;5048698;28;20029;-77
2023/10/17 14:46:58;;;;;;;6.30;3.75;;;14.40;99.90;;;;;;5053801;28;20524;-76
2023/10/17 14:49:26;;;;;;;6.30;4.22;;;14.40;99.90;;;;;;5050882;28;20025;-76
2023/10/17 14:51:53;;;;;;;5.70;3.90;;;14.40;99.90;;;;;;5048729;28;20132;-76
2023/10/17 14:54:19;;;;;;;6.50;3.80;;;14.40;99.90;;;;;;5047087;28;20080;-76
2023/10/17 14:56:44;;;;;;;7.47;3.63;;;14.40;99.90;;;;;;5044421;28;20025;-77
2023/10/17 14:59:10;;;;;;;5.95;3.80;;;14.30;99.90;;;;;;5051033;28;20056;-76